createdAt,value
2016-05-25T00:00:02.906Z,55.55
2016-05-25T00:01:03.378Z,55.65
2016-05-25T00:02:03.771Z,55.35
2016-05-25T00:03:02.711Z,55.55
2016-05-25T00:04:02.855Z,55.74
2016-05-25T00:05:02.842Z,55.26
2016-05-25T00:06:02.830Z,55.35
2016-05-25T00:07:02.832Z,55.16
2016-05-25T00:08:02.803Z,55.65
2016-05-25T00:09:02.791Z,54.87
2016-05-25T00:10:02.777Z,54.87
2016-05-25T00:11:02.765Z,55.65
2016-05-25T00:12:02.751Z,55.74
2016-05-25T00:13:02.738Z,55.07
2016-05-25T00:14:02.726Z,55.35
2016-05-25T00:15:02.712Z,55.16
2016-05-25T00:16:02.700Z,55.83
2016-05-25T00:17:02.687Z,55.16
2016-05-25T00:18:02.659Z,55.55
2016-05-25T00:19:02.661Z,55.45
2016-05-25T00:20:02.648Z,55.26
2016-05-25T00:21:02.463Z,55.26
2016-05-25T00:22:02.637Z,54.97
2016-05-25T00:23:02.593Z,55.55
2016-05-25T00:24:02.581Z,55.16
2016-05-25T00:25:02.584Z,55.45
2016-05-25T00:26:02.570Z,55.26
2016-05-25T00:27:02.573Z,55.26
2016-05-25T00:28:02.545Z,55.35
2016-05-25T00:29:02.532Z,55.45
2016-05-25T00:30:02.503Z,55.16
2016-05-25T00:31:02.490Z,55.65
2016-05-25T00:32:02.383Z,55.55
2016-05-25T00:33:02.464Z,55.35
2016-05-25T00:34:02.311Z,55.07
2016-05-25T00:35:02.438Z,55.65
2016-05-25T00:36:02.441Z,55.74
2016-05-25T00:37:02.412Z,55.83
2016-05-25T00:38:02.244Z,55.74
2016-05-25T00:39:02.387Z,55.74
2016-05-25T00:40:02.358Z,55.74
2016-05-25T00:41:02.361Z,55.26
2016-05-25T00:42:02.363Z,55.16
2016-05-25T00:43:02.351Z,55.83
2016-05-25T00:44:02.337Z,55.26
2016-05-25T00:45:02.324Z,55.07
2016-05-25T00:46:02.296Z,55.83
2016-05-25T00:47:02.283Z,55.07
2016-05-25T00:48:02.271Z,55.83
2016-05-25T00:49:02.257Z,55.65
2016-05-25T00:50:02.245Z,55.16
2016-05-25T00:51:02.231Z,55.26
2016-05-25T00:52:02.218Z,55.45
2016-05-25T00:53:02.206Z,55.16
2016-05-25T00:54:02.192Z,55.55
2016-05-25T00:55:02.196Z,55.26
2016-05-25T00:56:02.167Z,55.55
2016-05-25T00:57:02.153Z,55.26
2016-05-25T00:58:02.141Z,55.45
2016-05-25T00:59:02.128Z,55.35
2016-05-25T01:00:02.100Z,55.45
2016-05-25T01:01:02.695Z,55.26
2016-05-25T01:02:02.089Z,55.55
2016-05-25T01:03:02.061Z,55.16
2016-05-25T01:04:02.047Z,55.45
2016-05-25T01:05:02.035Z,55.55
2016-05-25T01:06:02.037Z,55.35
2016-05-25T01:07:02.008Z,54.97
2016-05-25T01:08:02.011Z,55.45
2016-05-25T01:09:01.999Z,55.07
2016-05-25T01:10:01.970Z,55.35
2016-05-25T01:11:01.816Z,55.55
2016-05-25T01:12:01.944Z,55.55
2016-05-25T01:13:01.931Z,55.26
2016-05-25T01:14:01.934Z,55.55
2016-05-25T01:15:01.905Z,55.55
2016-05-25T01:16:01.892Z,55.16
2016-05-25T01:17:01.832Z,55.55
2016-05-25T01:18:01.882Z,55.35
2016-05-25T01:19:01.854Z,55.16
2016-05-25T01:20:01.856Z,55.26
2016-05-25T01:21:01.828Z,55.26
2016-05-25T01:22:01.815Z,55.35
2016-05-25T01:23:01.801Z,54.97
2016-05-25T01:24:01.789Z,55.26
2016-05-25T01:25:01.792Z,55.26
2016-05-25T01:26:01.762Z,55.83
2016-05-25T01:27:01.751Z,55.65
2016-05-25T01:28:01.737Z,55.55
2016-05-25T01:29:01.725Z,55.74
2016-05-25T01:30:01.711Z,55.93
2016-05-25T01:31:01.698Z,55.65
2016-05-25T01:32:01.701Z,55.83
2016-05-25T01:33:01.672Z,56.03
2016-05-25T01:34:01.659Z,55.93
2016-05-25T01:35:01.647Z,55.83
2016-05-25T01:36:01.633Z,55.93
2016-05-25T01:37:01.621Z,55.93
2016-05-25T01:38:01.607Z,56.03
2016-05-25T01:39:01.594Z,55.93
2016-05-25T01:40:01.583Z,55.93
2016-05-25T01:41:01.569Z,55.93
2016-05-25T01:42:01.556Z,55.83
2016-05-25T01:43:01.543Z,55.65
2016-05-25T01:44:01.530Z,55.83
2016-05-25T01:45:01.518Z,55.35
2016-05-25T01:46:01.504Z,55.55
2016-05-25T01:47:01.319Z,55.26
2016-05-25T01:48:01.479Z,55.55
2016-05-25T01:49:01.450Z,55.83
2016-05-25T01:50:01.281Z,55.26
2016-05-25T01:51:01.423Z,55.26
2016-05-25T01:52:01.427Z,55.74
2016-05-25T01:53:01.414Z,55.74
2016-05-25T01:54:01.417Z,55.45
2016-05-25T01:55:01.387Z,55.74
2016-05-25T01:56:01.375Z,55.65
2016-05-25T01:57:01.346Z,55.74
2016-05-25T01:58:01.333Z,55.55
2016-05-25T01:59:01.320Z,55.55
2016-05-25T02:00:01.148Z,55.26
2016-05-25T02:01:01.295Z,55.55
2016-05-25T02:02:01.314Z,55.26
2016-05-25T02:03:01.267Z,55.35
2016-05-25T02:04:01.253Z,55.45
2016-05-25T02:05:01.256Z,55.45
2016-05-25T02:06:01.227Z,55.35
2016-05-25T02:07:01.214Z,55.26
2016-05-25T02:08:01.045Z,56.03
2016-05-25T02:09:01.188Z,55.83
2016-05-25T02:10:01.332Z,55.83
2016-05-25T02:11:01.163Z,55.65
2016-05-25T02:12:00.994Z,55.74
2016-05-25T02:13:01.137Z,56.12
2016-05-25T02:14:01.124Z,55.93
2016-05-25T02:15:00.955Z,55.74
2016-05-25T02:16:01.098Z,55.93
2016-05-25T02:17:00.929Z,55.83
2016-05-25T02:18:01.415Z,55.83
2016-05-25T02:19:01.059Z,55.74
2016-05-25T02:20:01.046Z,56.22
2016-05-25T02:21:01.018Z,55.55
2016-05-25T02:22:00.864Z,55.74
2016-05-25T02:23:01.007Z,55.83
2016-05-25T02:24:00.995Z,55.74
2016-05-25T02:25:00.966Z,55.83
2016-05-25T02:26:01.312Z,55.55
2016-05-25T02:27:00.940Z,55.55
2016-05-25T02:28:00.926Z,55.65
2016-05-25T02:29:00.929Z,55.55
2016-05-25T02:30:00.916Z,55.65
2016-05-25T02:31:00.903Z,55.55
2016-05-25T02:32:00.906Z,55.55
2016-05-25T02:33:00.878Z,55.83
2016-05-25T02:34:01.350Z,55.83
2016-05-25T02:35:00.837Z,55.65
2016-05-25T02:36:00.839Z,55.83
2016-05-25T02:37:00.811Z,55.65
2016-05-25T02:38:00.813Z,55.93
2016-05-25T02:39:00.785Z,55.55
2016-05-25T02:40:00.787Z,55.65
2016-05-25T02:41:00.759Z,55.93
2016-05-25T02:42:01.339Z,55.55
2016-05-25T02:43:00.733Z,55.65
2016-05-25T02:44:00.720Z,55.93
2016-05-25T02:45:00.722Z,55.83
2016-05-25T02:46:00.694Z,55.83
2016-05-25T02:47:01.025Z,55.93
2016-05-25T02:48:00.512Z,55.74
2016-05-25T02:49:00.515Z,55.65
2016-05-25T02:50:01.329Z,55.93
2016-05-25T02:51:00.645Z,55.93
2016-05-25T02:52:00.617Z,55.65
2016-05-25T02:53:00.603Z,55.93
2016-05-25T02:54:00.591Z,55.74
2016-05-25T02:55:00.578Z,56.03
2016-05-25T02:56:00.596Z,55.65
2016-05-25T02:57:00.552Z,55.74
2016-05-25T02:58:00.632Z,55.93
2016-05-25T02:59:00.526Z,55.74
2016-05-25T03:00:00.512Z,55.65
2016-05-25T03:01:00.484Z,55.9
2016-05-25T03:02:00.815Z,55.55
2016-05-25T03:03:00.506Z,55.9
2016-05-25T03:04:00.461Z,56.12
2016-05-25T03:05:00.448Z,55.93
2016-05-25T03:06:00.638Z,55.43
2016-05-25T03:07:00.423Z,55.65
2016-05-25T03:08:00.394Z,56.03
2016-05-25T03:09:00.381Z,55.55
2016-05-25T03:10:00.383Z,55.74
2016-05-25T03:11:00.355Z,55.62
2016-05-25T03:12:00.357Z,55.65
2016-05-25T03:13:00.345Z,55.83
2016-05-25T03:14:00.660Z,55.52
2016-05-25T03:15:00.303Z,55.83
2016-05-25T03:16:00.290Z,55.55
2016-05-25T03:17:00.402Z,55.55
2016-05-25T03:18:00.280Z,56.03
2016-05-25T03:19:00.252Z,55.65
2016-05-25T03:20:00.238Z,56.03
2016-05-25T03:21:00.382Z,55.81
2016-05-25T03:22:00.666Z,55.83
2016-05-25T03:23:00.200Z,55.93
2016-05-25T03:24:00.187Z,55.65
2016-05-25T03:25:00.174Z,55.74
2016-05-25T03:26:00.162Z,55.74
2016-05-25T03:27:00.149Z,55.83
2016-05-25T03:28:00.135Z,55.83
2016-05-25T03:29:00.263Z,55.83
2016-05-25T03:30:00.109Z,55.65
2016-05-25T03:31:00.096Z,55.65
2016-05-25T03:32:00.099Z,55.93
2016-05-25T03:33:00.070Z,56.03
2016-05-25T03:34:00.058Z,56.03
2016-05-25T03:34:59.889Z,55.65
2016-05-25T03:36:00.031Z,55.93
2016-05-25T03:37:00.159Z,55.55
2016-05-25T03:38:00.006Z,55.65
2016-05-25T03:38:59.977Z,55.65
2016-05-25T03:39:59.964Z,56.03
2016-05-25T03:40:59.952Z,55.83
2016-05-25T03:41:59.938Z,55.83
2016-05-25T03:43:31.272Z,55.74
2016-05-25T03:43:59.913Z,55.93
2016-05-25T03:45:00.399Z,55.55
2016-05-25T03:45:59.886Z,55.74
2016-05-25T03:46:59.889Z,55.62
2016-05-25T03:47:59.877Z,55.93
2016-05-25T03:48:59.708Z,55.65
2016-05-25T03:49:59.835Z,55.65
2016-05-25T03:50:59.822Z,55.83
2016-05-25T03:51:59.809Z,55.93
2016-05-25T03:53:00.296Z,55.74
2016-05-25T03:53:59.627Z,55.35
2016-05-25T03:54:59.785Z,55.74
2016-05-25T03:55:59.758Z,55.26
2016-05-25T03:56:59.745Z,55.26
2016-05-25T03:57:59.748Z,55.55
2016-05-25T03:58:59.719Z,55.35
2016-05-25T03:59:59.707Z,55.33
2016-05-25T04:01:00.287Z,55.62
2016-05-25T04:01:59.679Z,55.33
2016-05-25T04:02:59.668Z,54.97
2016-05-25T04:03:59.639Z,55.33
2016-05-25T04:04:59.626Z,55.55
2016-05-25T04:05:59.473Z,55.26
2016-05-25T04:06:59.600Z,55.26
2016-05-25T04:07:59.617Z,55.43
2016-05-25T04:09:00.434Z,55.04
2016-05-25T04:09:59.576Z,55.55
2016-05-25T04:10:59.548Z,55.55
2016-05-25T04:11:59.550Z,56
2016-05-25T04:12:59.538Z,55.23
2016-05-25T04:13:59.509Z,55.55
2016-05-25T04:14:59.340Z,55.65
2016-05-25T04:15:59.483Z,55.35
2016-05-25T04:16:59.580Z,55.16
2016-05-25T04:17:59.472Z,55.45
2016-05-25T04:18:59.444Z,55.26
2016-05-25T04:19:59.470Z,55.55
2016-05-25T04:20:59.310Z,54.97
2016-05-25T04:21:59.492Z,55.26
2016-05-25T04:22:59.488Z,55.13
2016-05-25T04:23:59.498Z,55.52
2016-05-25T04:24:59.790Z,55.26
2016-05-25T04:25:59.490Z,55.26
2016-05-25T04:26:59.485Z,55.26
2016-05-25T04:27:59.496Z,55.16
2016-05-25T04:28:59.476Z,55.55
2016-05-25T04:29:59.466Z,55.74
2016-05-25T04:30:59.457Z,55.13
2016-05-25T04:31:59.931Z,55.55
2016-05-25T04:32:59.780Z,55.33
2016-05-25T04:33:59.427Z,55.81
2016-05-25T04:34:59.415Z,55.62
2016-05-25T04:35:59.418Z,56
2016-05-25T04:36:59.392Z,55.55
2016-05-25T04:37:59.379Z,55.71
2016-05-25T04:38:59.369Z,55.62
2016-05-25T04:39:59.340Z,55.65
2016-05-25T04:41:00.686Z,55.23
2016-05-25T04:41:59.315Z,55.55
2016-05-25T04:42:59.318Z,55.55
2016-05-25T04:43:59.305Z,55.74
2016-05-25T04:44:59.293Z,55.52
2016-05-25T04:45:59.279Z,55.55
2016-05-25T04:46:59.095Z,55.52
2016-05-25T04:47:59.254Z,55.33
2016-05-25T04:48:59.240Z,55.23
2016-05-25T04:49:59.228Z,55.26
2016-05-25T04:50:59.200Z,55.23
2016-05-25T04:51:59.186Z,55.33
2016-05-25T04:52:59.173Z,55.43
2016-05-25T04:53:59.175Z,55.23
2016-05-25T04:54:59.148Z,55.62
2016-05-25T04:55:59.134Z,55.23
2016-05-25T04:56:59.121Z,55.33
2016-05-25T04:57:59.108Z,55.33
2016-05-25T04:58:59.096Z,55.16
2016-05-25T04:59:59.083Z,55.33
2016-05-25T05:00:59.086Z,55.33
2016-05-25T05:01:59.057Z,55.43
2016-05-25T05:02:59.044Z,55.52
2016-05-25T05:03:59.031Z,55.33
2016-05-25T05:04:59.018Z,55.33
2016-05-25T05:05:59.005Z,55.04
2016-05-25T05:06:59.007Z,55.43
2016-05-25T05:07:58.963Z,55.23
2016-05-25T05:08:58.951Z,55.52
2016-05-25T05:09:58.953Z,55.13
2016-05-25T05:10:58.940Z,55.43
2016-05-25T05:11:58.771Z,55.43
2016-05-25T05:12:58.915Z,55.33
2016-05-25T05:13:58.901Z,55.23
2016-05-25T05:14:58.873Z,55.04
2016-05-25T05:15:58.876Z,55.43
2016-05-25T05:16:58.879Z,55.43
2016-05-25T05:17:58.850Z,55.52
2016-05-25T05:18:58.837Z,55.23
2016-05-25T05:19:58.808Z,55.33
2016-05-25T05:20:58.812Z,55.62
2016-05-25T05:21:58.626Z,55.33
2016-05-25T05:22:58.770Z,55.33
2016-05-25T05:23:58.756Z,55.33
2016-05-25T05:24:58.744Z,54.85
2016-05-25T05:25:58.731Z,55.04
2016-05-25T05:26:58.718Z,54.94
2016-05-25T05:27:58.549Z,54.56
2016-05-25T05:28:58.677Z,54.75
2016-05-25T05:29:58.679Z,54.46
2016-05-25T05:30:58.666Z,54.56
2016-05-25T05:31:58.716Z,54.46
2016-05-25T05:32:58.656Z,54.46
2016-05-25T05:33:58.627Z,54.46
2016-05-25T05:34:58.614Z,54.08
2016-05-25T05:35:58.602Z,53.98
2016-05-25T05:36:58.589Z,54.08
2016-05-25T05:37:58.560Z,54.36
2016-05-25T05:38:58.407Z,54.36
2016-05-25T05:39:58.549Z,54.08
2016-05-25T05:40:58.521Z,54.46
2016-05-25T05:41:58.524Z,54.36
2016-05-25T05:42:58.495Z,54.17
2016-05-25T05:43:58.498Z,54.36
2016-05-25T05:44:58.469Z,54.27
2016-05-25T05:45:58.457Z,54.46
2016-05-25T05:46:58.443Z,54.36
2016-05-25T05:47:58.431Z,54.27
2016-05-25T05:48:58.418Z,54.08
2016-05-25T05:49:58.404Z,54.08
2016-05-25T05:50:58.407Z,54.08
2016-05-25T05:51:58.379Z,53.98
2016-05-25T05:52:58.366Z,53.88
2016-05-25T05:53:58.353Z,54.27
2016-05-25T05:54:58.339Z,54.17
2016-05-25T05:55:58.328Z,53.98
2016-05-25T05:56:58.158Z,54.17
2016-05-25T05:57:58.145Z,54.17
2016-05-25T05:58:58.289Z,54.17
2016-05-25T05:59:58.119Z,54.08
2016-05-25T06:01:00.403Z,54.08
2016-05-25T06:01:58.249Z,54.27
2016-05-25T06:02:58.252Z,54.17
2016-05-25T06:03:58.224Z,54.36
2016-05-25T06:04:58.194Z,54.27
2016-05-25T06:05:58.041Z,54.56
2016-05-25T06:06:58.185Z,54.27
2016-05-25T06:07:58.171Z,54.46
2016-05-25T06:08:58.160Z,54.17
2016-05-25T06:09:58.146Z,54.46
2016-05-25T06:10:58.133Z,54.17
2016-05-25T06:11:57.980Z,54.46
2016-05-25T06:12:58.107Z,54.36
2016-05-25T06:13:58.079Z,54.17
2016-05-25T06:14:58.065Z,54.36
2016-05-25T06:15:58.053Z,54.17
2016-05-25T06:16:58.056Z,54.36
2016-05-25T06:17:59.417Z,54.27
2016-05-25T06:18:58.015Z,54.17
2016-05-25T06:19:58.001Z,54.27
2016-05-25T06:20:57.987Z,54.56
2016-05-25T06:21:57.976Z,54.36
2016-05-25T06:22:57.962Z,54.17
2016-05-25T06:23:57.950Z,54.46
2016-05-25T06:24:57.937Z,54.46
2016-05-25T06:25:57.939Z,54.17
2016-05-25T06:26:57.911Z,54.27
2016-05-25T06:27:57.741Z,54.27
2016-05-25T06:28:57.884Z,54.17
2016-05-25T06:29:57.871Z,54.08
2016-05-25T06:30:57.858Z,54.17
2016-05-25T06:31:58.127Z,54.65
2016-05-25T06:32:57.833Z,54.75
2016-05-25T06:33:57.820Z,54.46
2016-05-25T06:34:57.823Z,54.27
2016-05-25T06:35:57.794Z,54.08
2016-05-25T06:36:57.781Z,54.27
2016-05-25T06:37:57.597Z,54.56
2016-05-25T06:38:57.740Z,54.27
2016-05-25T06:39:57.743Z,54.27
2016-05-25T06:40:57.776Z,54.08
2016-05-25T06:41:57.702Z,54.17
2016-05-25T06:42:57.813Z,54.56
2016-05-25T06:43:57.675Z,54.46
2016-05-25T06:44:57.662Z,54.36
2016-05-25T06:45:57.649Z,54.85
2016-05-25T06:46:57.495Z,54.56
2016-05-25T06:47:57.623Z,54.36
2016-05-25T06:48:57.813Z,54.65
2016-05-25T06:49:57.597Z,54.75
2016-05-25T06:50:57.585Z,54.75
2016-05-25T06:51:57.571Z,54.56
2016-05-25T06:52:57.558Z,54.75
2016-05-25T06:53:57.546Z,54.75
2016-05-25T06:54:57.533Z,54.36
2016-05-25T06:55:57.520Z,54.46
2016-05-25T06:56:57.804Z,54.08
2016-05-25T06:57:57.337Z,54.56
2016-05-25T06:58:57.497Z,54.75
2016-05-25T06:59:57.467Z,54.56
2016-05-25T07:00:57.455Z,54.56
2016-05-25T07:01:57.442Z,54.65
2016-05-25T07:02:59.930Z,54.65
2016-05-25T07:03:57.416Z,54.56
2016-05-25T07:04:57.794Z,54.75
2016-05-25T07:05:57.375Z,54.46
2016-05-25T07:06:57.361Z,54.56
2016-05-25T07:07:57.364Z,54.08
2016-05-25T07:08:57.336Z,54.36
2016-05-25T07:09:57.166Z,54.36
2016-05-25T07:10:57.310Z,54.56
2016-05-25T07:11:57.297Z,54.36
2016-05-25T07:12:57.846Z,54.46
2016-05-25T07:13:57.271Z,54.46
2016-05-25T07:14:57.290Z,54.27
2016-05-25T07:15:57.089Z,54.17
2016-05-25T07:16:57.467Z,54.46
2016-05-25T07:18:00.032Z,54.46
2016-05-25T07:18:57.207Z,54.27
2016-05-25T07:19:57.193Z,54.46
2016-05-25T07:20:57.821Z,54.56
2016-05-25T07:21:57.168Z,54.46
2016-05-25T07:22:57.234Z,54.46
2016-05-25T07:23:56.986Z,54.46
2016-05-25T07:24:57.129Z,54.65
2016-05-25T07:25:57.116Z,54.46
2016-05-25T07:26:57.103Z,54.36
2016-05-25T07:27:57.090Z,54.75
2016-05-25T07:28:57.077Z,54.36
2016-05-25T07:29:56.892Z,54.36
2016-05-25T07:30:57.036Z,54.46
2016-05-25T07:31:57.476Z,54.46
2016-05-25T07:32:57.025Z,54.36
2016-05-25T07:33:56.997Z,54.36
2016-05-25T07:34:56.984Z,54.27
2016-05-25T07:35:56.986Z,54.46
2016-05-25T07:36:57.115Z,54.46
2016-05-25T07:37:56.961Z,54.56
2016-05-25T07:38:56.933Z,54.46
2016-05-25T07:39:56.919Z,54.17
2016-05-25T07:40:56.907Z,54.46
2016-05-25T07:41:56.909Z,54.27
2016-05-25T07:42:56.880Z,54.56
2016-05-25T07:43:56.868Z,54.08
2016-05-25T07:44:57.121Z,54.36
2016-05-25T07:45:56.841Z,54.36
2016-05-25T07:46:56.829Z,54.36
2016-05-25T07:47:58.472Z,54.56
2016-05-25T07:48:56.803Z,54.36
2016-05-25T07:49:56.791Z,54.36
2016-05-25T07:50:56.762Z,54.36
2016-05-25T07:51:56.765Z,54.46
2016-05-25T07:52:58.767Z,54.58
2016-05-25T07:53:56.738Z,54.68
2016-05-25T07:54:56.726Z,54.68
2016-05-25T07:55:56.713Z,54.87
2016-05-25T07:56:56.684Z,54.78
2016-05-25T07:57:59.577Z,55.07
2016-05-25T07:58:56.690Z,54.49
2016-05-25T07:59:56.848Z,54.49
2016-05-25T08:00:57.131Z,54.87
2016-05-25T08:01:56.900Z,54.49
2016-05-25T08:02:58.262Z,54.49
2016-05-25T08:03:56.453Z,54.49
2016-05-25T08:04:56.425Z,54.97
2016-05-25T08:05:56.567Z,54.68
2016-05-25T08:06:56.570Z,54.78
2016-05-25T08:07:58.214Z,54.87
2016-05-25T08:08:56.544Z,54.78
2016-05-25T08:09:56.516Z,54.58
2016-05-25T08:10:56.347Z,55.07
2016-05-25T08:11:56.491Z,54.97
2016-05-25T08:12:57.758Z,54.68
2016-05-25T08:13:56.463Z,54.49
2016-05-25T08:14:56.451Z,54.58
2016-05-25T08:15:56.735Z,54.78
2016-05-25T08:16:56.269Z,54.58
2016-05-25T08:17:58.257Z,54.87
2016-05-25T08:18:56.399Z,54.97
2016-05-25T08:19:56.387Z,54.87
2016-05-25T08:20:56.358Z,54.68
2016-05-25T08:21:56.345Z,54.97
2016-05-25T08:22:57.676Z,54.87
2016-05-25T08:23:56.929Z,55.07
2016-05-25T08:24:56.306Z,54.78
2016-05-25T08:25:56.293Z,54.87
2016-05-25T08:26:56.139Z,54.68
2016-05-25T08:27:58.548Z,54.78
2016-05-25T08:28:56.270Z,54.97
2016-05-25T08:29:56.242Z,54.49
2016-05-25T08:30:56.228Z,54.87
2016-05-25T08:31:56.794Z,54.68
2016-05-25T08:32:58.328Z,54.78
2016-05-25T08:33:56.206Z,54.78
2016-05-25T08:34:56.177Z,54.39
2016-05-25T08:35:56.164Z,54.49
2016-05-25T08:36:56.010Z,54.68
2016-05-25T08:37:57.295Z,54.78
2016-05-25T08:38:56.125Z,54.68
2016-05-25T08:39:56.956Z,54.68
2016-05-25T08:40:56.114Z,54.78
2016-05-25T08:41:56.086Z,54.49
2016-05-25T08:42:58.011Z,54.3
2016-05-25T08:43:56.060Z,54.97
2016-05-25T08:44:56.047Z,54.87
2016-05-25T08:45:56.035Z,54.78
2016-05-25T08:46:56.037Z,54.97
2016-05-25T08:47:57.305Z,54.68
2016-05-25T08:48:55.840Z,54.49
2016-05-25T08:49:55.967Z,54.39
2016-05-25T08:50:55.970Z,52.18
2016-05-25T08:51:55.957Z,53.02
2016-05-25T08:52:59.226Z,52.8
2016-05-25T08:53:55.931Z,53.54
2016-05-25T08:54:55.746Z,54.55
2016-05-25T08:55:56.093Z,53.87
2016-05-25T08:56:55.720Z,53.85
2016-05-25T08:57:56.567Z,54.16
2016-05-25T08:58:55.867Z,52.36
2016-05-25T08:59:55.682Z,53.54
2016-05-25T09:00:55.840Z,53.35
2016-05-25T09:01:55.828Z,53.19
2016-05-25T09:02:57.956Z,52.32
2016-05-25T09:03:56.083Z,51.96
2016-05-25T09:04:55.772Z,51.76
2016-05-25T09:05:55.761Z,51.48
2016-05-25T09:06:55.747Z,51.96
2016-05-25T09:07:57.281Z,51.96
2016-05-25T09:08:55.565Z,51.38
2016-05-25T09:09:55.708Z,51.67
2016-05-25T09:10:55.695Z,51.67
2016-05-25T09:11:56.136Z,51.57
2016-05-25T09:12:55.545Z,51.67
2016-05-25T09:13:55.641Z,51.86
2016-05-25T09:14:55.628Z,51.76
2016-05-25T09:15:55.631Z,51.76
2016-05-25T09:16:55.587Z,51.86
2016-05-25T09:17:56.057Z,51.67
2016-05-25T09:18:55.936Z,51.96
2016-05-25T09:19:55.407Z,51.89
2016-05-25T09:20:55.551Z,51.86
2016-05-25T09:21:55.538Z,51.89
2016-05-25T09:22:57.088Z,52.27
2016-05-25T09:23:55.512Z,51.98
2016-05-25T09:24:55.499Z,52.27
2016-05-25T09:25:55.485Z,52.27
2016-05-25T09:26:56.113Z,52.27
2016-05-25T09:27:56.178Z,52.47
2016-05-25T09:28:55.447Z,52.85
2016-05-25T09:29:55.434Z,52.75
2016-05-25T09:30:55.421Z,52.75
2016-05-25T09:31:55.409Z,53.05
2016-05-25T09:32:56.801Z,52.85
2016-05-25T09:33:55.382Z,52.95
2016-05-25T09:34:56.026Z,52.75
2016-05-25T09:35:55.356Z,52.95
2016-05-25T09:36:55.344Z,52.66
2016-05-25T09:37:57.658Z,52.75
2016-05-25T09:38:55.318Z,52.75
2016-05-25T09:39:55.305Z,52.85
2016-05-25T09:40:55.119Z,52.75
2016-05-25T09:41:55.264Z,52.95
2016-05-25T09:42:56.267Z,52.75
2016-05-25T09:43:55.238Z,52.85
2016-05-25T09:44:55.224Z,52.75
2016-05-25T09:45:55.211Z,52.95
2016-05-25T09:46:55.542Z,52.85
2016-05-25T09:47:55.186Z,52.75
2016-05-25T09:48:55.188Z,53.05
2016-05-25T09:49:55.004Z,52.85
2016-05-25T09:50:56.100Z,52.85
2016-05-25T09:51:55.134Z,53.05
2016-05-25T09:52:55.121Z,52.66
2016-05-25T09:53:55.108Z,52.75
2016-05-25T09:54:55.110Z,52.66
2016-05-25T09:55:55.066Z,52.85
2016-05-25T09:56:55.068Z,52.75
2016-05-25T09:57:55.369Z,52.66
2016-05-25T09:58:55.246Z,52.75
2016-05-25T09:59:55.030Z,52.75
2016-05-25T10:00:55.017Z,52.75
2016-05-25T10:01:55.004Z,52.75
2016-05-25T10:02:57.320Z,52.66
2016-05-25T10:03:54.978Z,52.75
2016-05-25T10:04:54.965Z,52.95
2016-05-25T10:05:54.953Z,52.75
2016-05-25T10:06:55.283Z,52.56
2016-05-25T10:07:54.942Z,52.85
2016-05-25T10:08:54.898Z,52.66
2016-05-25T10:09:54.729Z,52.75
2016-05-25T10:10:54.872Z,52.78
2016-05-25T10:11:54.859Z,52.75
2016-05-25T10:12:54.847Z,52.66
2016-05-25T10:13:54.989Z,52.75
2016-05-25T10:14:55.274Z,52.87
2016-05-25T10:15:54.808Z,52.75
2016-05-25T10:16:54.873Z,52.78
2016-05-25T10:17:54.783Z,52.69
2016-05-25T10:18:54.769Z,52.56
2016-05-25T10:19:54.755Z,52.66
2016-05-25T10:20:54.743Z,52.56
2016-05-25T10:21:54.886Z,52.47
2016-05-25T10:22:54.718Z,52.56
2016-05-25T10:23:54.704Z,52.69
2016-05-25T10:24:54.692Z,52.87
2016-05-25T10:25:55.944Z,49.87
2016-05-25T10:26:54.665Z,49.94
2016-05-25T10:27:54.653Z,50.49
2016-05-25T10:28:54.484Z,50.76
2016-05-25T10:29:55.032Z,50.18
2016-05-25T10:30:54.614Z,50.56
2016-05-25T10:31:57.367Z,50.82
2016-05-25T10:32:54.588Z,51.11
2016-05-25T10:33:54.559Z,50.44
2016-05-25T10:34:54.546Z,51.69
2016-05-25T10:35:54.549Z,51.69
2016-05-25T10:36:54.520Z,51.79
2016-05-25T10:37:54.914Z,51.79
2016-05-25T10:38:54.339Z,51.79
2016-05-25T10:39:54.497Z,51.79
2016-05-25T10:40:54.484Z,51.31
2016-05-25T10:41:54.456Z,50.95
2016-05-25T10:42:54.459Z,50.95
2016-05-25T10:43:54.430Z,51.26
2016-05-25T10:44:54.432Z,50.4
2016-05-25T10:45:54.747Z,50.81
2016-05-25T10:46:55.297Z,50.51
2016-05-25T10:47:54.222Z,50.61
2016-05-25T10:48:54.366Z,50.23
2016-05-25T10:49:54.352Z,50.25
2016-05-25T10:50:54.339Z,50.83
2016-05-25T10:51:54.327Z,50.25
2016-05-25T10:52:54.314Z,50.35
2016-05-25T10:53:54.941Z,50.45
2016-05-25T10:54:54.132Z,50.63
2016-05-25T10:55:54.275Z,50.45
2016-05-25T10:56:54.246Z,50.45
2016-05-25T10:57:54.093Z,50.45
2016-05-25T10:58:54.235Z,50.54
2016-05-25T10:59:54.223Z,50.45
2016-05-25T11:00:54.195Z,50.45
2016-05-25T11:01:54.400Z,50.54
2016-05-25T11:02:54.497Z,50.45
2016-05-25T11:03:54.156Z,50.35
2016-05-25T11:04:54.159Z,50.83
2016-05-25T11:05:54.130Z,50.63
2016-05-25T11:06:54.132Z,50.45
2016-05-25T11:07:55.370Z,50.63
2016-05-25T11:08:54.091Z,50.93
2016-05-25T11:09:54.234Z,50.63
2016-05-25T11:10:54.065Z,50.35
2016-05-25T11:11:53.896Z,50.63
2016-05-25T11:12:56.508Z,50.45
2016-05-25T11:13:54.025Z,50.45
2016-05-25T11:14:54.013Z,50.27
2016-05-25T11:15:54.000Z,50.37
2016-05-25T11:16:54.003Z,50.47
2016-05-25T11:17:56.866Z,50.35
2016-05-25T11:18:53.962Z,50.27
2016-05-25T11:19:53.949Z,50.37
2016-05-25T11:20:53.779Z,50.47
2016-05-25T11:21:53.908Z,50.25
2016-05-25T11:22:53.910Z,50.54
2016-05-25T11:23:53.897Z,50.35
2016-05-25T11:24:53.727Z,50.47
2016-05-25T11:25:54.981Z,50.57
2016-05-25T11:26:53.702Z,50.35
2016-05-25T11:27:54.673Z,50.73
2016-05-25T11:28:53.832Z,50.47
2016-05-25T11:29:53.804Z,50.93
2016-05-25T11:30:53.806Z,50.73
2016-05-25T11:31:53.778Z,50.85
2016-05-25T11:32:54.265Z,50.76
2016-05-25T11:33:54.205Z,50.57
2016-05-25T11:34:53.755Z,50.47
2016-05-25T11:35:53.726Z,50.73
2016-05-25T11:36:53.712Z,50.93
2016-05-25T11:37:55.295Z,51.34
2016-05-25T11:38:53.687Z,51.24
2016-05-25T11:39:53.675Z,52.01
2016-05-25T11:40:53.662Z,51.92
2016-05-25T11:41:53.492Z,51.92
2016-05-25T11:42:53.964Z,51.82
2016-05-25T11:43:53.622Z,51.92
2016-05-25T11:44:53.609Z,52.11
2016-05-25T11:45:53.597Z,51.82
2016-05-25T11:46:53.584Z,52.2
2016-05-25T11:47:54.150Z,52.11
2016-05-25T11:48:53.402Z,51.92
2016-05-25T11:49:53.389Z,52.4
2016-05-25T11:50:53.532Z,51.92
2016-05-25T11:51:53.347Z,52.11
2016-05-25T11:52:53.506Z,52.11
2016-05-25T11:53:53.477Z,52.4
2016-05-25T11:54:53.465Z,51.92
2016-05-25T11:55:53.452Z,51.92
2016-05-25T11:56:53.298Z,52.01
2016-05-25T11:57:53.441Z,51.98
2016-05-25T11:58:53.429Z,52.2
2016-05-25T11:59:53.400Z,51.82
2016-05-25T12:00:53.402Z,51.72
2016-05-25T12:01:53.624Z,49.38
2016-05-25T12:02:53.752Z,50.04
2016-05-25T12:03:53.365Z,50.4
2016-05-25T12:04:53.335Z,50.59
2016-05-25T12:05:53.337Z,50.4
2016-05-25T12:06:53.309Z,50.49
2016-05-25T12:07:53.296Z,50.46
2016-05-25T12:08:53.284Z,50.46
2016-05-25T12:09:53.271Z,50.18
2016-05-25T12:10:53.258Z,50.08
2016-05-25T12:11:53.244Z,49.91
2016-05-25T12:12:53.248Z,49.72
2016-05-25T12:13:53.234Z,49.72
2016-05-25T12:14:53.206Z,50.3
2016-05-25T12:15:53.192Z,50.4
2016-05-25T12:16:53.180Z,51.17
2016-05-25T12:17:54.073Z,50.71
2016-05-25T12:18:52.998Z,50.42
2016-05-25T12:19:53.142Z,50.45
2016-05-25T12:20:53.113Z,50.45
2016-05-25T12:21:53.100Z,50.35
2016-05-25T12:22:54.869Z,50.54
2016-05-25T12:23:53.089Z,50.45
2016-05-25T12:24:53.092Z,49.87
2016-05-25T12:25:53.063Z,50.45
2016-05-25T12:26:52.879Z,50.73
2016-05-25T12:27:54.272Z,50.45
2016-05-25T12:28:52.869Z,50.54
2016-05-25T12:29:53.012Z,50.66
2016-05-25T12:30:52.983Z,50.35
2016-05-25T12:31:52.970Z,50.35
2016-05-25T12:32:54.598Z,50.63
2016-05-25T12:33:52.945Z,50.57
2016-05-25T12:34:52.932Z,50.54
2016-05-25T12:35:52.918Z,50.54
2016-05-25T12:36:52.906Z,50.45
2016-05-25T12:37:55.737Z,50.25
2016-05-25T12:38:52.865Z,50.45
2016-05-25T12:39:52.851Z,50.27
2016-05-25T12:40:52.854Z,50.54
2016-05-25T12:41:52.856Z,50.47
2016-05-25T12:42:52.828Z,50.47
2016-05-25T12:43:52.815Z,50.27
2016-05-25T12:44:52.803Z,50.47
2016-05-25T12:45:52.789Z,50.37
2016-05-25T12:46:52.620Z,50.27
2016-05-25T12:47:53.108Z,50.57
2016-05-25T12:48:52.751Z,50.37
2016-05-25T12:49:52.739Z,50.47
2016-05-25T12:50:52.708Z,50.47
2016-05-25T12:51:52.539Z,50.85
2016-05-25T12:52:52.683Z,51.43